sensor_id;sensor_type;location;lat;lon;timestamp;pressure;altitude;pressure_sealevel;temperature
28803;BMP280;15949;55.656;37.422;2022-08-24T00:02:13;100710.81;;;18.10
28803;BMP280;15949;55.656;37.422;2022-08-24T00:07:20;100715.00;;;17.92
28803;BMP280;15949;55.656;37.422;2022-08-24T00:12:26;100710.34;;;17.75
28803;BMP280;15949;55.656;37.422;2022-08-24T00:17:32;100716.13;;;17.55
28803;BMP280;15949;55.656;37.422;2022-08-24T00:22:38;100716.09;;;17.36
28803;BMP280;15949;55.656;37.422;2022-08-24T00:27:46;100727.38;;;17.22
28803;BMP280;15949;55.656;37.422;2022-08-24T00:32:51;100726.31;;;17.10
28803;BMP280;15949;55.656;37.422;2022-08-24T00:37:58;100729.84;;;16.98
28803;BMP280;15949;55.656;37.422;2022-08-24T00:43:06;100724.00;;;16.90
28803;BMP280;15949;55.656;37.422;2022-08-24T00:48:17;100724.97;;;16.84
28803;BMP280;15949;55.656;37.422;2022-08-24T00:53:30;100730.91;;;16.79
28803;BMP280;15949;55.656;37.422;2022-08-24T00:58:39;100727.75;;;16.71
28803;BMP280;15949;55.656;37.422;2022-08-24T01:03:46;100729.19;;;16.63
28803;BMP280;15949;55.656;37.422;2022-08-24T01:08:51;100725.25;;;16.55
28803;BMP280;15949;55.656;37.422;2022-08-24T01:13:57;100729.69;;;16.49
28803;BMP280;15949;55.656;37.422;2022-08-24T01:19:10;100727.25;;;16.41
28803;BMP280;15949;55.656;37.422;2022-08-24T01:24:18;100729.31;;;16.37
28803;BMP280;15949;55.656;37.422;2022-08-24T01:29:26;100724.50;;;16.32
28803;BMP280;15949;55.656;37.422;2022-08-24T01:34:34;100727.72;;;16.27
28803;BMP280;15949;55.656;37.422;2022-08-24T01:39:43;100729.34;;;16.25
28803;BMP280;15949;55.656;37.422;2022-08-24T01:44:49;100728.63;;;16.24
28803;BMP280;15949;55.656;37.422;2022-08-24T01:49:55;100730.97;;;16.22
28803;BMP280;15949;55.656;37.422;2022-08-24T01:55:00;100723.44;;;16.17
28803;BMP280;15949;55.656;37.422;2022-08-24T02:00:09;100724.34;;;16.14
28803;BMP280;15949;55.656;37.422;2022-08-24T02:05:15;100726.69;;;16.12
28803;BMP280;15949;55.656;37.422;2022-08-24T02:10:21;100725.19;;;16.11
28803;BMP280;15949;55.656;37.422;2022-08-24T02:15:36;100726.06;;;16.08
28803;BMP280;15949;55.656;37.422;2022-08-24T02:20:44;100730.56;;;16.11
28803;BMP280;15949;55.656;37.422;2022-08-24T02:25:49;100729.72;;;16.14
28803;BMP280;15949;55.656;37.422;2022-08-24T02:30:56;100731.66;;;16.13
28803;BMP280;15949;55.656;37.422;2022-08-24T02:36:02;100736.63;;;16.15
28803;BMP280;15949;55.656;37.422;2022-08-24T02:41:10;100738.19;;;16.12
28803;BMP280;15949;55.656;37.422;2022-08-24T02:46:17;100732.81;;;16.12
28803;BMP280;15949;55.656;37.422;2022-08-24T02:51:27;100735.09;;;16.14
28803;BMP280;15949;55.656;37.422;2022-08-24T02:56:33;100734.66;;;16.15
28803;BMP280;15949;55.656;37.422;2022-08-24T03:01:39;100739.56;;;16.17
28803;BMP280;15949;55.656;37.422;2022-08-24T03:06:45;100747.22;;;16.19
28803;BMP280;15949;55.656;37.422;2022-08-24T03:11:51;100745.59;;;16.21
28803;BMP280;15949;55.656;37.422;2022-08-24T03:16:56;100754.63;;;16.27
28803;BMP280;15949;55.656;37.422;2022-08-24T03:22:03;100758.25;;;16.33
28803;BMP280;15949;55.656;37.422;2022-08-24T03:27:09;100760.38;;;16.38
28803;BMP280;15949;55.656;37.422;2022-08-24T03:32:14;100756.84;;;16.41
28803;BMP280;15949;55.656;37.422;2022-08-24T03:37:20;100753.88;;;16.49
28803;BMP280;15949;55.656;37.422;2022-08-24T03:42:25;100759.78;;;16.56
28803;BMP280;15949;55.656;37.422;2022-08-24T03:47:31;100769.22;;;16.61
28803;BMP280;15949;55.656;37.422;2022-08-24T03:52:37;100772.31;;;16.72
28803;BMP280;15949;55.656;37.422;2022-08-24T03:57:43;100772.66;;;16.83
28803;BMP280;15949;55.656;37.422;2022-08-24T04:02:48;100772.16;;;16.98
28803;BMP280;15949;55.656;37.422;2022-08-24T04:07:54;100765.78;;;17.13
28803;BMP280;15949;55.656;37.422;2022-08-24T04:13:00;100772.91;;;17.29
28803;BMP280;15949;55.656;37.422;2022-08-24T04:18:05;100777.47;;;17.41
28803;BMP280;15949;55.656;37.422;2022-08-24T04:23:11;100777.22;;;17.58
28803;BMP280;15949;55.656;37.422;2022-08-24T04:28:20;100776.09;;;17.77
28803;BMP280;15949;55.656;37.422;2022-08-24T04:33:27;100773.41;;;18.05
28803;BMP280;15949;55.656;37.422;2022-08-24T04:38:33;100778.81;;;18.32
28803;BMP280;15949;55.656;37.422;2022-08-24T04:43:40;100774.13;;;18.69
28803;BMP280;15949;55.656;37.422;2022-08-24T04:48:49;100778.97;;;19.08
28803;BMP280;15949;55.656;37.422;2022-08-24T04:53:55;100769.25;;;19.34
28803;BMP280;15949;55.656;37.422;2022-08-24T04:59:01;100770.31;;;19.61
28803;BMP280;15949;55.656;37.422;2022-08-24T05:04:06;100772.25;;;19.84
28803;BMP280;15949;55.656;37.422;2022-08-24T05:09:12;100767.84;;;20.11
28803;BMP280;15949;55.656;37.422;2022-08-24T05:14:18;100770.31;;;20.38
28803;BMP280;15949;55.656;37.422;2022-08-24T05:19:24;100777.94;;;20.69
28803;BMP280;15949;55.656;37.422;2022-08-24T05:24:30;100766.28;;;21.13
28803;BMP280;15949;55.656;37.422;2022-08-24T05:29:36;100770.84;;;21.42
28803;BMP280;15949;55.656;37.422;2022-08-24T05:34:41;100768.63;;;21.61
28803;BMP280;15949;55.656;37.422;2022-08-24T05:39:48;100773.56;;;21.83
28803;BMP280;15949;55.656;37.422;2022-08-24T05:44:54;100771.06;;;22.05
28803;BMP280;15949;55.656;37.422;2022-08-24T05:50:00;100776.19;;;22.24
28803;BMP280;15949;55.656;37.422;2022-08-24T05:55:06;100773.13;;;22.42
28803;BMP280;15949;55.656;37.422;2022-08-24T06:00:13;100769.81;;;22.64
28803;BMP280;15949;55.656;37.422;2022-08-24T06:05:18;100776.16;;;22.87
28803;BMP280;15949;55.656;37.422;2022-08-24T06:10:24;100767.84;;;23.07
28803;BMP280;15949;55.656;37.422;2022-08-24T06:15:30;100769.44;;;23.31
28803;BMP280;15949;55.656;37.422;2022-08-24T06:20:41;100771.00;;;23.54
28803;BMP280;15949;55.656;37.422;2022-08-24T06:25:46;100771.03;;;23.65
28803;BMP280;15949;55.656;37.422;2022-08-24T06:31:11;100774.56;;;23.94
28803;BMP280;15949;55.656;37.422;2022-08-24T06:36:16;100774.34;;;24.14
28803;BMP280;15949;55.656;37.422;2022-08-24T06:41:22;100770.63;;;24.40
28803;BMP280;15949;55.656;37.422;2022-08-24T06:46:29;100773.31;;;24.62
28803;BMP280;15949;55.656;37.422;2022-08-24T06:51:35;100778.97;;;24.81
28803;BMP280;15949;55.656;37.422;2022-08-24T06:56:41;100765.53;;;25.00
28803;BMP280;15949;55.656;37.422;2022-08-24T07:01:47;100770.91;;;25.22
28803;BMP280;15949;55.656;37.422;2022-08-24T07:06:53;100775.69;;;25.52
28803;BMP280;15949;55.656;37.422;2022-08-24T07:11:59;100768.84;;;25.75
28803;BMP280;15949;55.656;37.422;2022-08-24T07:17:05;100765.22;;;25.97
28803;BMP280;15949;55.656;37.422;2022-08-24T07:22:11;100762.66;;;26.05
28803;BMP280;15949;55.656;37.422;2022-08-24T07:27:18;100761.50;;;26.25
28803;BMP280;15949;55.656;37.422;2022-08-24T07:32:23;100752.56;;;26.49
28803;BMP280;15949;55.656;37.422;2022-08-24T07:37:29;100755.84;;;26.66
28803;BMP280;15949;55.656;37.422;2022-08-24T07:42:35;100755.72;;;26.77
28803;BMP280;15949;55.656;37.422;2022-08-24T07:47:40;100756.19;;;26.81
28803;BMP280;15949;55.656;37.422;2022-08-24T07:52:47;100752.91;;;27.01
28803;BMP280;15949;55.656;37.422;2022-08-24T07:57:53;100747.00;;;27.35
28803;BMP280;15949;55.656;37.422;2022-08-24T08:02:58;100748.09;;;27.45
28803;BMP280;15949;55.656;37.422;2022-08-24T08:08:06;100750.69;;;27.70
28803;BMP280;15949;55.656;37.422;2022-08-24T08:13:12;100746.41;;;27.87
28803;BMP280;15949;55.656;37.422;2022-08-24T08:18:18;100740.44;;;28.02
28803;BMP280;15949;55.656;37.422;2022-08-24T08:23:24;100734.31;;;28.23
28803;BMP280;15949;55.656;37.422;2022-08-24T08:28:48;100736.63;;;28.45
28803;BMP280;15949;55.656;37.422;2022-08-24T08:33:53;100744.00;;;28.63
28803;BMP280;15949;55.656;37.422;2022-08-24T08:38:59;100730.06;;;28.75
28803;BMP280;15949;55.656;37.422;2022-08-24T08:44:13;100725.41;;;28.83
28803;BMP280;15949;55.656;37.422;2022-08-24T09:05:20;100722.34;;;29.07
28803;BMP280;15949;55.656;37.422;2022-08-24T09:16:30;100719.19;;;29.45
28803;BMP280;15949;55.656;37.422;2022-08-24T09:37:31;100707.00;;;30.18
28803;BMP280;15949;55.656;37.422;2022-08-24T09:42:58;100715.09;;;30.24
28803;BMP280;15949;55.656;37.422;2022-08-24T10:04:16;100709.69;;;30.46
28803;BMP280;15949;55.656;37.422;2022-08-24T10:15:10;100709.94;;;30.71
28803;BMP280;15949;55.656;37.422;2022-08-24T10:20:23;100695.06;;;30.59
28803;BMP280;15949;55.656;37.422;2022-08-24T10:25:41;100687.81;;;30.92
28803;BMP280;15949;55.656;37.422;2022-08-24T10:30:59;100699.34;;;31.21
28803;BMP280;15949;55.656;37.422;2022-08-24T10:46:52;100696.00;;;31.53
28803;BMP280;15949;55.656;37.422;2022-08-24T10:57:34;100670.72;;;31.95
28803;BMP280;15949;55.656;37.422;2022-08-24T11:02:45;100677.53;;;32.26
28803;BMP280;15949;55.656;37.422;2022-08-24T11:08:05;100676.19;;;32.43
28803;BMP280;15949;55.656;37.422;2022-08-24T11:18:23;100674.75;;;31.94
28803;BMP280;15949;55.656;37.422;2022-08-24T11:23:35;100664.53;;;32.19
28803;BMP280;15949;55.656;37.422;2022-08-24T11:28:46;100657.22;;;32.47
28803;BMP280;15949;55.656;37.422;2022-08-24T11:34:03;100659.44;;;32.41
28803;BMP280;15949;55.656;37.422;2022-08-24T11:39:22;100657.47;;;32.58
28803;BMP280;15949;55.656;37.422;2022-08-24T11:44:38;100653.44;;;32.60
28803;BMP280;15949;55.656;37.422;2022-08-24T11:50:22;100649.63;;;32.55
28803;BMP280;15949;55.656;37.422;2022-08-24T11:55:36;100650.91;;;32.54
28803;BMP280;15949;55.656;37.422;2022-08-24T12:00:54;100640.06;;;32.23
28803;BMP280;15949;55.656;37.422;2022-08-24T12:11:54;100638.41;;;31.88
28803;BMP280;15949;55.656;37.422;2022-08-24T12:22:08;100645.16;;;31.54
28803;BMP280;15949;55.656;37.422;2022-08-24T12:27:34;100631.94;;;31.53
28803;BMP280;15949;55.656;37.422;2022-08-24T12:32:57;100627.84;;;31.69
28803;BMP280;15949;55.656;37.422;2022-08-24T12:48:29;100628.97;;;31.66
28803;BMP280;15949;55.656;37.422;2022-08-24T12:59:02;100612.84;;;31.47
28803;BMP280;15949;55.656;37.422;2022-08-24T13:04:30;100610.69;;;31.38
28803;BMP280;15949;55.656;37.422;2022-08-24T13:09:43;100614.56;;;31.83
28803;BMP280;15949;55.656;37.422;2022-08-24T13:14:50;100608.09;;;32.20
28803;BMP280;15949;55.656;37.422;2022-08-24T13:20:25;100592.59;;;32.33
28803;BMP280;15949;55.656;37.422;2022-08-24T13:26:24;100583.72;;;32.09
28803;BMP280;15949;55.656;37.422;2022-08-24T13:31:33;100588.88;;;31.73
28803;BMP280;15949;55.656;37.422;2022-08-24T13:42:11;100575.06;;;31.40
28803;BMP280;15949;55.656;37.422;2022-08-24T14:03:49;100577.31;;;31.19
28803;BMP280;15949;55.656;37.422;2022-08-24T14:25:49;100568.84;;;31.32
28803;BMP280;15949;55.656;37.422;2022-08-24T14:36:27;100570.00;;;30.98
28803;BMP280;15949;55.656;37.422;2022-08-24T14:42:03;100564.88;;;30.57
28803;BMP280;15949;55.656;37.422;2022-08-24T14:47:36;100567.59;;;30.26
28803;BMP280;15949;55.656;37.422;2022-08-24T14:52:52;100566.16;;;29.74
28803;BMP280;15949;55.656;37.422;2022-08-24T15:09:51;100561.72;;;29.06
28803;BMP280;15949;55.656;37.422;2022-08-24T15:36:11;100549.03;;;27.19
28803;BMP280;15949;55.656;37.422;2022-08-24T15:41:23;100549.88;;;26.82
28803;BMP280;15949;55.656;37.422;2022-08-24T15:46:35;100553.53;;;26.53
28803;BMP280;15949;55.656;37.422;2022-08-24T15:56:50;100549.88;;;26.07
28803;BMP280;15949;55.656;37.422;2022-08-24T16:07:57;100556.94;;;25.48
28803;BMP280;15949;55.656;37.422;2022-08-24T16:18:39;100573.03;;;24.91
28803;BMP280;15949;55.656;37.422;2022-08-24T16:23:54;100571.69;;;24.62
28803;BMP280;15949;55.656;37.422;2022-08-24T16:29:00;100568.66;;;24.24
28803;BMP280;15949;55.656;37.422;2022-08-24T16:34:26;100573.66;;;23.98
28803;BMP280;15949;55.656;37.422;2022-08-24T16:39:33;100571.00;;;23.70
28803;BMP280;15949;55.656;37.422;2022-08-24T16:44:40;100565.28;;;23.46
28803;BMP280;15949;55.656;37.422;2022-08-24T16:49:47;100577.16;;;23.26
28803;BMP280;15949;55.656;37.422;2022-08-24T16:54:53;100572.66;;;23.00
28803;BMP280;15949;55.656;37.422;2022-08-24T16:59:59;100574.53;;;22.72
28803;BMP280;15949;55.656;37.422;2022-08-24T17:05:05;100574.72;;;22.57
28803;BMP280;15949;55.656;37.422;2022-08-24T17:10:13;100579.09;;;22.38
28803;BMP280;15949;55.656;37.422;2022-08-24T17:15:20;100581.69;;;22.21
28803;BMP280;15949;55.656;37.422;2022-08-24T17:20:26;100588.56;;;22.11
28803;BMP280;15949;55.656;37.422;2022-08-24T17:25:32;100586.53;;;22.05
28803;BMP280;15949;55.656;37.422;2022-08-24T17:30:39;100583.53;;;21.98
28803;BMP280;15949;55.656;37.422;2022-08-24T17:35:46;100587.44;;;21.91
28803;BMP280;15949;55.656;37.422;2022-08-24T17:40:51;100588.94;;;21.66
28803;BMP280;15949;55.656;37.422;2022-08-24T17:45:57;100590.31;;;21.50
28803;BMP280;15949;55.656;37.422;2022-08-24T17:51:04;100585.72;;;21.36
28803;BMP280;15949;55.656;37.422;2022-08-24T17:56:10;100600.09;;;21.22
28803;BMP280;15949;55.656;37.422;2022-08-24T18:01:17;100594.00;;;21.07
28803;BMP280;15949;55.656;37.422;2022-08-24T18:06:24;100600.31;;;20.98
28803;BMP280;15949;55.656;37.422;2022-08-24T18:11:31;100598.75;;;20.91
28803;BMP280;15949;55.656;37.422;2022-08-24T18:16:37;100600.31;;;20.77
28803;BMP280;15949;55.656;37.422;2022-08-24T18:21:43;100594.50;;;20.64
28803;BMP280;15949;55.656;37.422;2022-08-24T18:26:49;100589.22;;;20.55
28803;BMP280;15949;55.656;37.422;2022-08-24T18:31:56;100596.69;;;20.45
28803;BMP280;15949;55.656;37.422;2022-08-24T18:37:03;100591.13;;;20.34
28803;BMP280;15949;55.656;37.422;2022-08-24T18:42:10;100583.41;;;20.27
28803;BMP280;15949;55.656;37.422;2022-08-24T18:47:17;100585.75;;;20.19
28803;BMP280;15949;55.656;37.422;2022-08-24T18:52:23;100590.59;;;20.15
28803;BMP280;15949;55.656;37.422;2022-08-24T18:57:29;100588.00;;;20.06
28803;BMP280;15949;55.656;37.422;2022-08-24T19:02:35;100592.47;;;19.94
28803;BMP280;15949;55.656;37.422;2022-08-24T19:07:43;100583.53;;;19.88
28803;BMP280;15949;55.656;37.422;2022-08-24T19:12:57;100584.47;;;19.85
28803;BMP280;15949;55.656;37.422;2022-08-24T19:18:04;100587.06;;;19.80
28803;BMP280;15949;55.656;37.422;2022-08-24T19:23:13;100588.56;;;19.66
28803;BMP280;15949;55.656;37.422;2022-08-24T19:28:21;100592.47;;;19.65
28803;BMP280;15949;55.656;37.422;2022-08-24T19:33:36;100591.34;;;19.57
28803;BMP280;15949;55.656;37.422;2022-08-24T19:38:42;100591.88;;;19.46
28803;BMP280;15949;55.656;37.422;2022-08-24T19:43:51;100589.44;;;19.33
28803;BMP280;15949;55.656;37.422;2022-08-24T19:49:17;100588.66;;;19.18
28803;BMP280;15949;55.656;37.422;2022-08-24T19:54:23;100596.53;;;19.07
28803;BMP280;15949;55.656;37.422;2022-08-24T19:59:33;100599.25;;;18.98
28803;BMP280;15949;55.656;37.422;2022-08-24T20:04:42;100589.09;;;18.92
28803;BMP280;15949;55.656;37.422;2022-08-24T20:09:48;100603.41;;;18.84
28803;BMP280;15949;55.656;37.422;2022-08-24T20:14:53;100598.81;;;18.75
28803;BMP280;15949;55.656;37.422;2022-08-24T20:19:59;100601.56;;;18.66
28803;BMP280;15949;55.656;37.422;2022-08-24T20:25:05;100601.41;;;18.60
28803;BMP280;15949;55.656;37.422;2022-08-24T20:30:12;100597.09;;;18.54
28803;BMP280;15949;55.656;37.422;2022-08-24T20:35:18;100601.91;;;18.50
28803;BMP280;15949;55.656;37.422;2022-08-24T20:40:24;100589.69;;;18.39
28803;BMP280;15949;55.656;37.422;2022-08-24T20:45:30;100598.38;;;18.34
28803;BMP280;15949;55.656;37.422;2022-08-24T20:50:35;100596.00;;;18.27
28803;BMP280;15949;55.656;37.422;2022-08-24T20:55:41;100598.56;;;18.22
28803;BMP280;15949;55.656;37.422;2022-08-24T21:00:48;100604.41;;;18.11
28803;BMP280;15949;55.656;37.422;2022-08-24T21:05:53;100603.25;;;18.03
28803;BMP280;15949;55.656;37.422;2022-08-24T21:10:59;100603.53;;;17.96
28803;BMP280;15949;55.656;37.422;2022-08-24T21:16:05;100595.47;;;17.86
28803;BMP280;15949;55.656;37.422;2022-08-24T21:21:11;100597.56;;;17.82
28803;BMP280;15949;55.656;37.422;2022-08-24T21:26:21;100596.38;;;17.65
28803;BMP280;15949;55.656;37.422;2022-08-24T21:31:27;100603.84;;;17.33
28803;BMP280;15949;55.656;37.422;2022-08-24T21:36:33;100597.53;;;17.18
28803;BMP280;15949;55.656;37.422;2022-08-24T21:41:39;100606.81;;;17.08
28803;BMP280;15949;55.656;37.422;2022-08-24T21:46:46;100609.63;;;17.04
28803;BMP280;15949;55.656;37.422;2022-08-24T21:51:52;100613.66;;;17.00
28803;BMP280;15949;55.656;37.422;2022-08-24T21:56:58;100610.03;;;16.94
28803;BMP280;15949;55.656;37.422;2022-08-24T22:02:04;100617.19;;;16.87
28803;BMP280;15949;55.656;37.422;2022-08-24T22:07:10;100614.19;;;16.85
28803;BMP280;15949;55.656;37.422;2022-08-24T22:12:16;100609.72;;;16.82
28803;BMP280;15949;55.656;37.422;2022-08-24T22:17:22;100601.94;;;16.84
28803;BMP280;15949;55.656;37.422;2022-08-24T22:22:28;100610.44;;;16.83
28803;BMP280;15949;55.656;37.422;2022-08-24T22:27:33;100597.59;;;16.78
28803;BMP280;15949;55.656;37.422;2022-08-24T22:32:39;100595.22;;;16.58
28803;BMP280;15949;55.656;37.422;2022-08-24T22:37:45;100597.41;;;16.41
28803;BMP280;15949;55.656;37.422;2022-08-24T22:42:50;100600.81;;;16.32
28803;BMP280;15949;55.656;37.422;2022-08-24T22:47:56;100599.41;;;16.28
28803;BMP280;15949;55.656;37.422;2022-08-24T22:53:01;100598.03;;;16.23
28803;BMP280;15949;55.656;37.422;2022-08-24T22:58:09;100594.41;;;16.17
28803;BMP280;15949;55.656;37.422;2022-08-24T23:03:14;100594.41;;;16.17
28803;BMP280;15949;55.656;37.422;2022-08-24T23:08:20;100598.84;;;16.11
28803;BMP280;15949;55.656;37.422;2022-08-24T23:13:25;100592.09;;;16.06
28803;BMP280;15949;55.656;37.422;2022-08-24T23:18:31;100588.66;;;16.06
28803;BMP280;15949;55.656;37.422;2022-08-24T23:23:55;100580.91;;;16.08
28803;BMP280;15949;55.656;37.422;2022-08-24T23:29:01;100580.91;;;16.08
28803;BMP280;15949;55.656;37.422;2022-08-24T23:34:08;100579.41;;;16.07
28803;BMP280;15949;55.656;37.422;2022-08-24T23:39:15;100586.84;;;16.03
28803;BMP280;15949;55.656;37.422;2022-08-24T23:44:23;100576.16;;;15.90
28803;BMP280;15949;55.656;37.422;2022-08-24T23:49:30;100583.28;;;15.84
28803;BMP280;15949;55.656;37.422;2022-08-24T23:54:36;100580.53;;;15.75
28803;BMP280;15949;55.656;37.422;2022-08-24T23:59:42;100583.00;;;15.69
